Latest Weather Observations for Camooweal

IDD60801

Issued at 11:31 pm CST Sunday 25 October 2020 (issued every 10 minutes, with the page automatically refreshed every 10 minutes)

About weather observations | Map of weather stations | Latest weather observations for NT | Other Formats
Station Details ID: 037010 Name: CAMOOWEAL TOWNSHIP Lat: -19.92 Lon: 138.12 Height: 231.2 m
Data from the previous 72 hours. | See also: Recent months at Camooweal
Date/Time
CST
Temp
°C
App
Temp
°C
Dew
Point
°C
Rel
Hum
%
Delta-T
°C
Wind Press
QNH
hPa
Press
MSL
hPa
Rain since
9am
mm
Dir  Spd
km/h
Gust
km/h
Spd
kts
Gust
kts
25/11:30pm 26.3 21.5 7.4 30 10.1 SSE 22 30 12 16 1012.7 1011.3 0.0
25/11:00pm 26.6 22.2 7.6 30 10.2 S 20 28 11 15 1012.6 1011.2 0.0
25/10:30pm 26.9 22.6 7.9 30 10.3 S 20 30 11 16 1012.8 1011.4 0.0
25/10:00pm 27.2 23.3 8.6 31 10.2 SSE 19 24 10 13 1012.8 1011.4 0.0
25/09:30pm 27.5 23.5 8.4 30 10.5 S 19 24 10 13 1012.8 1011.4 0.0
25/09:00pm 27.8 23.9 8.6 30 10.6 S 19 24 10 13 1012.3 1010.9 0.0
25/08:30pm 28.2 24.1 8.5 29 10.9 S 20 26 11 14 1011.9 1010.4 0.0
25/08:00pm 28.9 24.5 9.1 29 11.1 S 22 28 12 15 1011.4 1009.9 0.0
25/07:30pm 29.1 25.4 9.3 29 11.1 SSE 19 32 10 17 1011.3 1009.8 0.0
25/07:00pm 29.6 25.9 10.2 30 11.1 S 20 28 11 15 1011.0 1009.5 0.0
25/06:30pm 30.0 25.9 10.0 29 11.4 SSE 22 28 12 15 1010.5 1009.1 0.0
25/06:00pm 30.7 27.1 10.6 29 11.6 S 20 30 11 16 1010.2 1008.8 0.0
25/05:30pm 31.0 27.1 10.9 29 11.7 S 22 28 12 15 1010.1 1008.7 0.0
25/05:00pm 31.2 27.2 10.5 28 12.0 S 22 30 12 16 1009.8 1008.4 0.0
25/04:30pm 31.9 28.6 11.7 29 12.0 S 20 32 11 17 1009.7 1008.3 0.0
25/04:00pm 32.7 30.8 12.9 30 12.0 S 15 24 8 13 1009.9 1008.5 0.0
25/03:30pm 32.1 30.7 12.3 29 11.8 S 11 19 6 10 1010.1 1008.7 0.0
25/03:00pm 31.7 30.2 12.0 30 11.7 SSE 11 19 6 10 1010.7 1009.2 0.0
25/02:30pm 31.0 29.0 11.4 30 11.5 S 13 24 7 13 1011.2 1009.7 0.0
25/02:00pm 31.3 29.1 12.2 31 11.4 SSE 15 26 8 14 1011.7 1010.2 0.0
25/01:30pm 31.1 28.5 12.0 31 11.3 S 17 24 9 13 1012.0 1010.5 0.0
25/01:00pm 31.0 27.2 12.4 32 11.1 S 24 35 13 19 1012.6 1011.2 0.0
25/12:30pm 30.5 27.3 11.9 31 11.0 S 20 32 11 17 1013.2 1011.8 0.0
25/12:00pm 30.4 26.9 10.9 30 11.3 SSE 20 30 11 16 1013.7 1012.3 0.0
25/11:30am 30.2 27.1 12.1 32 10.7 SE 20 32 11 17 1014.2 1012.8 0.0
25/11:00am 28.3 24.4 10.9 34 10.0 SE 22 32 12 17 1014.3 1012.9 0.0
25/10:30am 28.2 23.7 11.3 35 9.8 SE 26 33 14 18 1014.3 1012.9 0.0
25/10:00am 27.1 22.5 11.2 37 9.1 SE 26 39 14 21 1014.8 1013.4 0.0
25/09:30am 26.6 22.0 11.1 38 8.9 SSE 26 35 14 19 1015.5 1014.0 0.0
25/09:00am 25.3 19.8 10.4 39 8.4 SSE 30 35 16 19 1015.6 1014.1 0.0
25/08:30am 24.8 18.9 11.0 42 7.8 SSE 33 43 18 23 1015.4 1013.9 0.2
25/08:00am 24.1 19.1 11.1 44 7.3 SSE 28 41 15 22 1015.0 1013.6 0.2
25/07:30am 23.1 19.1 11.8 49 6.4 SSE 24 35 13 19 1014.7 1013.3 0.2
25/07:00am 22.0 18.5 12.3 54 5.5 SSE 22 32 12 17 1014.4 1013.0 0.2
25/06:30am 21.1 17.3 12.3 57 5.0 S 24 35 13 19 1013.8 1012.4 0.2
25/06:00am 20.8 17.0 12.5 59 4.7 SSE 24 35 13 19 1013.0 1011.6 0.2
25/05:30am 20.9 17.9 12.6 59 4.7 S 20 32 11 17 1013.0 1011.6 0.2
25/05:00am 21.3 18.4 13.0 59 4.8 S 20 26 11 14 1012.7 1011.3 0.2
25/04:30am 22.0 19.6 13.9 60 4.8 S 19 26 10 14 1012.3 1010.9 0.2
25/04:00am 22.1 23.1 19.5 85 1.7 SSW 13 17 7 9 1011.9 1010.4 0.2
25/03:30am 22.3 24.8 21.1 93 0.8 SSW 9 11 5 6 1011.6 1010.1 0.2
25/03:00am 22.5 24.4 21.3 93 0.8 SSW 13 17 7 9 1011.5 1010.0 0.2
25/02:30am 22.7 23.9 21.5 93 0.8 SSW 17 20 9 11 1011.6 1010.1 0.2
25/02:00am 22.6 26.9 21.1 91 1.0 CALM 0 7 0 4 1011.5 1010.0 0.2
25/01:30am 23.0 26.7 20.7 87 1.5 E 2 6 1 3 1011.5 1010.0 0.2
25/01:00am 23.3 26.2 20.6 85 1.8 NNE 6 7 3 4 1011.5 1010.0 0.2
25/12:30am 24.1 26.8 20.6 81 2.3 N 7 9 4 5 1011.7 1010.2 0.2
25/12:00am 24.4 27.1 20.7 80 2.4 N 7 11 4 6 1012.1 1010.6 0.2
 
Date/Time
CST
Temp
°C
App
Temp
°C
Dew
Point
°C
Rel
Hum
%
Delta-T
°C
Wind Press
QNH
hPa
Press
MSL
hPa
Rain since
9am
mm
Dir  Spd
km/h
Gust
km/h
Spd
kts
Gust
kts
24/11:30pm 24.7 26.7 20.8 79 2.6 N 11 15 6 8 1012.1 1010.6 0.2
24/11:00pm 24.8 27.0 20.5 77 2.8 N 9 15 5 8 1012.2 1010.8 0.2
24/10:30pm 25.1 25.9 20.6 76 3.0 N 17 20 9 11 1012.4 1011.0 0.2
24/10:00pm 25.4 25.1 20.4 74 3.3 NNE 22 30 12 16 1012.2 1010.8 0.2
24/09:30pm 26.0 27.2 20.6 72 3.6 NNE 15 22 8 12 1011.8 1010.3 0.2
24/09:00pm 26.7 28.1 20.3 68 4.2 NNE 13 19 7 10 1011.5 1010.0 0.2
24/08:30pm 28.5 29.2 18.0 53 6.7 ENE 11 13 6 7 1011.1 1009.6 0.2
24/08:00pm 28.3 29.2 17.5 52 6.9 SE 9 11 5 6 1010.5 1009.1 0.2
24/07:30pm 29.1 29.5 17.3 49 7.5 SSE 11 15 6 8 1009.8 1008.4 0.2
24/07:00pm 29.9 30.1 16.7 45 8.4 SSE 11 17 6 9 1009.4 1008.0 0.2
24/06:30pm 30.7 30.0 16.3 42 9.1 S 15 20 8 11 1008.8 1007.4 0.2
24/06:00pm 31.7 29.9 16.0 38 9.9 S 20 26 11 14 1008.4 1007.0 0.2
24/05:30pm 32.4 30.5 16.7 39 10.0 S 22 30 12 16 1007.6 1006.1 0.2
24/05:00pm 32.6 30.1 18.0 41 9.5 S 28 41 15 22 1006.9 1005.4 0.2
24/04:30pm 33.7 33.2 19.0 42 9.7 SSW 20 28 11 15 1007.0 1005.5 0.2
24/04:00pm 33.7 33.2 18.6 40 9.9 SSW 19 26 10 14 1007.1 1005.6 0.2
24/03:30pm 33.3 33.3 19.0 42 9.5 WSW 17 26 9 14 1007.7 1006.2 0.2
24/03:00pm 33.3 33.5 19.4 44 9.2 SW 17 30 9 16 1008.2 1006.7 0.2
24/02:30pm 33.2 34.6 20.4 47 8.6 SW 13 20 7 11 1008.4 1007.0 0.2
24/02:00pm 32.8 34.0 20.0 47 8.6 WSW 13 26 7 14 1008.4 1007.0 0.2
24/01:30pm 32.5 33.4 20.1 48 8.3 SW 15 24 8 13 1008.7 1007.3 0.2
24/01:00pm 32.6 34.8 21.1 50 7.8 WSW 11 20 6 11 1009.2 1007.8 0.2
24/12:30pm 32.3 34.4 20.9 51 7.7 W 11 22 6 12 1009.5 1008.1 0.2
24/12:00pm 31.4 33.2 20.4 52 7.4 WNW 11 20 6 11 1010.1 1008.7 0.2
24/11:30am 31.1 32.7 20.7 54 7.0 WNW 13 26 7 14 1010.5 1009.1 0.2
24/11:00am 30.8 31.7 20.1 53 7.1 NW 15 26 8 14 1010.5 1009.1 0.2
24/10:30am 30.5 32.5 21.6 59 6.0 NW 13 17 7 9 1011.1 1009.6 0.2
24/10:00am 29.0 30.3 21.7 64 4.9 NNW 17 22 9 12 1011.4 1009.9 0.2
24/09:30am 28.1 29.0 20.9 65 4.8 N 17 22 9 12 1011.8 1010.3 0.2
24/09:00am 27.0 28.1 21.3 71 3.8 NNE 17 24 9 13 1011.9 1010.4 0.2
24/08:30am 26.9 28.7 21.9 74 3.4 N 15 22 8 12 1012.2 1010.8 32.8
24/08:00am 25.6 26.9 20.8 75 3.2 NNE 15 20 8 11 1012.1 1010.6 32.8
24/07:30am 24.9 26.3 20.4 76 3.0 NE 13 20 7 11 1012.1 1010.6 32.8
24/07:00am 23.8 26.0 20.5 82 2.2 N 9 13 5 7 1011.8 1010.3 32.8
24/06:30am 22.7 25.7 20.8 89 1.2 N 6 9 3 5 1011.4 1009.9 32.8
24/06:00am 21.2 25.0 20.2 94 0.6 CALM 0 0 0 0 1010.9 1009.4 32.8
24/05:30am 21.4 24.1 20.2 93 0.8 WSW 6 7 3 4 1010.7 1009.2 32.8
24/05:00am 22.1 24.3 20.4 90 1.1 N 9 11 5 6 1009.9 1008.5 32.8
24/04:30am 21.9 24.7 20.4 91 1.0 N 6 9 3 5 1009.3 1007.9 32.8
24/04:00am 21.9 24.4 20.2 90 1.1 N 7 11 4 6 1008.7 1007.3 32.8
24/03:30am 21.8 24.0 20.3 91 1.0 N 9 11 5 6 1008.2 1006.7 32.8
24/03:00am 21.7 23.4 20.2 91 1.0 N 11 15 6 8 1007.9 1006.4 32.8
24/02:30am 21.5 23.2 20.1 92 0.9 NNE 11 15 6 8 1007.8 1006.3 32.8
24/02:00am 21.7 23.2 19.8 89 1.2 NNE 11 15 6 8 1007.8 1006.3 32.8
24/01:30am 22.1 22.7 19.5 85 1.7 NNE 15 20 8 11 1007.9 1006.4 32.8
24/01:00am 22.2 22.9 19.6 85 1.7 NNE 15 20 8 11 1007.9 1006.4 32.8
24/12:30am 22.1 22.4 19.6 86 1.6 NNE 17 22 9 12 1008.2 1006.7 32.8
24/12:00am 22.3 22.1 19.8 86 1.6 NNE 20 28 11 15 1008.5 1007.1 32.8
 
Date/Time
CST
Temp
°C
App
Temp
°C
Dew
Point
°C
Rel
Hum
%
Delta-T
°C
Wind Press
QNH
hPa
Press
MSL
hPa
Rain since
9am
mm
Dir  Spd
km/h
Gust
km/h
Spd
kts
Gust
kts
23/11:30pm 22.6 21.7 19.8 84 1.8 NNE 24 35 13 19 1008.5 1007.1 32.8
23/11:00pm 22.9 21.6 19.9 83 1.9 NNE 26 35 14 19 1008.3 1006.9 32.8
23/10:30pm 22.8 22.7 20.0 84 1.8 NNE 20 30 11 16 1008.4 1007.0 32.8
23/10:00pm 22.6 22.1 19.9 85 1.7 N 22 32 12 17 1008.3 1006.9 32.8
23/09:30pm 23.1 23.4 20.4 85 1.8 N 19 24 10 13 1008.3 1006.9 32.8
23/09:00pm 22.6 22.3 20.3 87 1.5 NNE 22 33 12 18 1008.0 1006.5 32.8
23/08:30pm 22.8 20.8 20.0 84 1.8 N 30 41 16 22 1007.6 1006.1 32.8
23/08:00pm 22.4 22.5 19.9 86 1.6 NNW 19 30 10 16 1008.8 1007.4 32.8
23/07:30pm 20.9 21.1 20.2 96 0.5 SW 19 32 10 17 1009.6 1008.2 27.8
23/07:21pm 21.3 21.0 20.3 94 0.6 SSE 22 32 12 17 1009.4 1008.0 25.4
23/07:00pm 20.9 20.0 20.6 98 0.2 ENE 26 35 14 19 1007.4 1005.9 25.4
23/06:30pm 21.2 20.8 21.0 99 0.1 NE 24 35 13 19 1007.9 1006.4 25.4
23/06:00pm 20.9 17.7 20.2 96 0.5 SSW 37 63 20 34 1007.6 1006.1 25.2
23/05:59pm 20.8 17.3 20.3 97 0.3 SSW 39 63 21 34 1007.3 1005.8 25.2
23/05:53pm 19.8 15.3 19.0 95 0.5 W 41 65 22 35 1008.6 1007.2 21.8
23/05:45pm 23.5 22.8 20.2 82 2.2 NE 24 65 13 35 1010.2 1008.8 10.0
23/05:42pm 24.5 24.5 20.2 77 2.8 ENE 20 41 11 22 1009.4 1008.0 10.0
23/05:30pm 24.1 24.1 21.0 83 2.1 E 22 32 12 17 1006.2 1004.7 10.0
23/05:18pm 22.8 22.0 21.6 93 0.8 E 28 43 15 23 1005.5 1004.1 10.0
23/05:02pm 21.7 18.9 21.7 100 0.0 SE 39 57 21 31 1005.2 1003.8 10.0
23/05:00pm 20.8 17.4 20.6 99 0.1 SSE 39 52 21 28 1005.4 1004.0 10.0
23/04:57pm 20.7 18.0 20.5 99 0.1 S 35 46 19 25 1006.2 1004.7 10.0
23/04:54pm 20.3 17.6 19.6 96 0.4 SW 33 46 18 25 1007.8 1006.3 9.0
23/04:46pm 22.0 17.6 21.3 96 0.5 SSW 46 76 25 41 1008.2 1006.7 2.6
23/04:44pm 21.5 15.4 20.1 92 0.9 SSW 52 76 28 41 1007.3 1005.8 1.8
23/04:35pm 23.1 16.0 16.9 68 3.8 SW 50 82 27 44 1006.0 1004.6 0.4
23/04:34pm 23.5 17.0 16.5 65 4.3 SW 46 82 25 44 1005.9 1004.5 0.4
23/04:30pm 25.3 20.8 16.4 57 5.5 SW 35 72 19 39 1006.4 1004.9 0.4
23/04:29pm 26.1 22.3 17.2 58 5.6 SW 33 72 18 39 1006.7 1005.2 0.4
23/04:18pm 30.1 29.2 15.8 42 8.9 NW 15 48 8 26 1006.8 1005.3 0.4
23/04:00pm 32.1 30.5 16.4 39 10.0 NNE 20 30 11 16 1005.4 1004.0 0.4
23/03:30pm 32.1 31.0 17.2 41 9.6 NNE 19 26 10 14 1005.7 1004.3 0.4
23/03:00pm 32.3 30.8 17.7 41 9.4 NNE 22 33 12 18 1006.0 1004.6 0.4
23/02:30pm 31.9 30.4 18.5 45 8.8 NNE 24 35 13 19 1007.1 1005.6 0.2
23/02:00pm 29.8 28.6 18.3 50 7.4 NNE 22 33 12 18 1008.3 1006.9 0.2
23/01:30pm 28.3 28.0 19.2 57 5.9 N 19 26 10 14 1009.2 1007.8 0.2
23/01:00pm 30.2 27.9 17.6 46 8.1 N 26 35 14 19 1009.2 1007.8 0.0
23/12:30pm 31.2 28.3 17.1 42 9.0 N 28 44 15 24 1009.3 1007.9 0.0
23/12:00pm 31.6 27.0 14.7 36 10.4 N 32 43 17 23 1009.7 1008.3 0.0
23/11:30am 31.4 28.2 17.3 43 9.1 N 30 43 16 23 1009.5 1008.1 0.0
23/11:00am 27.6 27.3 19.1 59 5.5 NNW 19 32 10 17 1010.2 1008.8 0.0
23/10:42am 26.2 23.5 19.3 65 4.5 NNE 32 50 17 27 1009.4 1008.0 0.0
23/10:30am 26.7 22.6 18.3 60 5.4 N 37 52 20 28 1009.7 1008.3 0.0
23/10:16am 28.9 26.0 17.1 49 7.5 N 28 46 15 25 1010.4 1009.0 0.0
23/10:00am 30.0 29.0 17.5 47 8.0 N 19 28 10 15 1010.7 1009.2 0.0
23/09:30am 29.6 29.2 17.1 47 8.0 NNE 15 22 8 12 1011.0 1009.5 0.0
23/09:00am 28.8 29.6 17.3 49 7.3 N 9 15 5 8 1011.1 1009.6 0.0
23/08:30am 28.6 27.8 17.2 50 7.2 N 17 20 9 11 1010.5 1009.1 5.2
23/08:00am 27.8 28.1 17.9 54 6.3 N 13 20 7 11 1010.3 1008.9 5.2
23/07:30am 27.1 27.5 18.1 58 5.8 NNE 13 19 7 10 1009.8 1008.4 5.2
23/07:00am 26.1 26.5 18.2 61 5.0 NNE 13 17 7 9 1009.7 1008.3 5.2
23/06:30am 24.9 25.4 18.4 67 4.2 NNE 13 15 7 8 1009.5 1008.1 5.2
23/06:00am 24.6 25.2 18.5 69 3.9 NNE 13 19 7 10 1009.5 1008.1 5.2
23/05:30am 24.4 25.2 19.0 72 3.5 NNE 13 19 7 10 1009.6 1008.2 5.2
23/05:00am 24.2 24.4 18.6 71 3.6 NE 15 17 8 9 1009.1 1007.7 5.2
23/04:30am 24.4 25.0 17.6 66 4.3 NNE 11 15 6 8 1008.9 1007.5 5.0
23/04:00am 24.7 22.7 18.2 67 4.1 NNE 26 33 14 18 1008.9 1007.5 5.0
23/03:30am 24.3 25.4 19.6 75 3.1 NNW 13 22 7 12 1010.1 1008.7 5.0
23/03:00am 26.5 25.8 18.6 62 5.1 NNW 20 33 11 18 1009.6 1008.2 4.6
23/02:30am 27.2 27.5 17.9 56 5.9 NW 13 20 7 11 1009.4 1008.0 4.6
23/02:00am 26.8 26.9 19.2 63 4.9 N 17 20 9 11 1009.2 1007.8 4.6
23/01:30am 26.3 26.3 18.9 63 4.8 NNW 17 28 9 15 1009.8 1008.4 4.6
23/01:00am 26.9 26.3 18.5 60 5.4 NNW 19 30 10 16 1009.9 1008.5 4.6
23/12:30am 26.7 26.8 18.3 60 5.4 NNW 15 24 8 13 1010.1 1008.7 4.6
23/12:00am 26.6 26.4 18.5 61 5.2 NNW 17 22 9 12 1010.9 1009.4 4.6
 
Date/Time
CST
Temp
°C
App
Temp
°C
Dew
Point
°C
Rel
Hum
%
Delta-T
°C
Wind Press
QNH
hPa
Press
MSL
hPa
Rain since
9am
mm
Dir  Spd
km/h
Gust
km/h
Spd
kts
Gust
kts
22/11:30pm 26.4 26.8 19.0 63 4.8 NNW 15 26 8 14 1011.5 1010.0 4.6

Other formats

Comma delimited format used in spreadsheet applications
http://www.bom.gov.au/fwo/IDD60801/IDD60801.94255.axf

JavaScript Object Notation format (JSON) in row-major order
http://www.bom.gov.au/fwo/IDD60801/IDD60801.94255.json

Data quality

Most of these data are generated automatically and are frequently updated. Quality checks on data are not normally performed. It is possible for incorrect values to appear. Refer to information at About Latest Weather Observations and please check the disclaimer before using these data.